Time;durP1;ratioP1;P1;durP2;ratioP2;P2;SDS_P1;SDS_P2;PMS_P1;PMS_P2;Temp;Humidity;BMP_temperature;BMP_pressure;BME280_temperature;BME280_humidity;BME280_pressure;Samples;Min_cycle;Max_cycle;Signal;HPM_P1;HPM_P2
2022/04/23 00:01:55;;;;;;;13.90;8.85;;;10.80;99.90;;;;;;5136839;27;20048;-61
2022/04/23 00:04:21;;;;;;;15.80;8.85;;;10.70;99.90;;;;;;5136741;27;20118;-61
2022/04/23 00:06:48;;;;;;;12.70;8.05;;;10.50;99.90;;;;;;5136726;27;20047;-62
2022/04/23 00:09:13;;;;;;;16.33;8.73;;;10.30;99.90;;;;;;5136669;27;20051;-61
2022/04/23 00:11:39;;;;;;;16.45;8.65;;;10.20;99.90;;;;;;5136616;27;20047;-61
2022/04/23 00:14:07;;;;;;;12.93;8.43;;;10.40;99.90;;;;;;5136578;27;20050;-61
2022/04/23 00:16:33;;;;;;;16.13;8.90;;;10.10;99.90;;;;;;5118482;27;20102;-61
2022/04/23 00:18:59;;;;;;;14.60;8.90;;;10.20;99.90;;;;;;5136525;27;20039;-62
2022/04/23 00:21:25;;;;;;;12.18;8.32;;;11.60;99.90;;;;;;5136385;27;20039;-62
2022/04/23 00:23:50;;;;;;;14.07;9.10;;;10.40;99.90;;;;;;5135500;27;20065;-61
2022/04/23 00:26:16;;;;;;;14.75;9.38;;;10.60;99.90;;;;;;5136434;27;20130;-61
2022/04/23 00:28:42;;;;;;;16.77;9.40;;;10.40;99.90;;;;;;5136349;27;20106;-62
2022/04/23 00:31:08;;;;;;;18.33;9.63;;;10.20;99.90;;;;;;5136323;27;20066;-62
2022/04/23 00:33:37;;;;;;;13.02;9.48;;;11.10;99.90;;;;;;5117550;27;20050;-61
2022/04/23 00:36:10;;;;;;;15.60;10.02;;;10.50;99.90;;;;;;5136161;27;20051;-63
2022/04/23 00:38:42;;;;;;;17.60;9.77;;;10.00;99.90;;;;;;5117764;27;20043;-62
2022/04/23 00:41:43;;;;;;;15.93;9.85;;;10.00;99.90;;;;;;5135692;27;20198;-64
2022/04/23 00:43:55;;;;;;;17.55;10.52;;;10.50;99.90;;;;;;5135887;27;20047;-62
2022/04/23 00:46:20;;;;;;;16.60;9.40;;;10.10;99.90;;;;;;5136000;27;20089;-61
2022/04/23 00:48:46;;;;;;;16.52;10.23;;;10.40;99.90;;;;;;5135929;27;20472;-61
2022/04/23 00:51:12;;;;;;;15.18;9.52;;;10.20;99.90;;;;;;5135883;27;20039;-61
2022/04/23 00:53:38;;;;;;;15.50;10.30;;;10.10;99.90;;;;;;5135899;27;20426;-63
2022/04/23 00:56:05;;;;;;;17.05;10.68;;;10.00;99.90;;;;;;5135483;27;20482;-62
2022/04/23 00:58:31;;;;;;;18.65;10.52;;;10.20;99.90;;;;;;5117299;27;20039;-63
2022/04/23 01:00:57;;;;;;;13.80;10.32;;;11.00;99.90;;;;;;5117166;27;20395;-62
2022/04/23 01:03:22;;;;;;;15.00;11.52;;;10.40;99.90;;;;;;5135662;27;20047;-62
2022/04/23 01:05:48;;;;;;;16.02;10.35;;;9.90;99.90;;;;;;5135624;27;20104;-63
2022/04/23 01:08:17;;;;;;;15.95;10.50;;;10.50;99.90;;;;;;5117170;27;20047;-63
2022/04/23 01:10:45;;;;;;;16.75;10.93;;;10.30;99.90;;;;;;5135492;27;20039;-62
2022/04/23 01:13:14;;;;;;;17.70;11.18;;;10.00;99.90;;;;;;5135440;27;20467;-63
2022/04/23 01:15:43;;;;;;;15.05;11.02;;;10.40;99.90;;;;;;5135650;27;20055;-63
2022/04/23 01:18:09;;;;;;;20.10;12.35;;;10.00;99.90;;;;;;5135316;27;20055;-63
2022/04/23 01:20:36;;;;;;;19.83;11.63;;;10.20;99.90;;;;;;5135203;27;20046;-64
2022/04/23 01:23:02;;;;;;;18.63;12.02;;;10.00;99.90;;;;;;5135278;27;20043;-62
2022/04/23 01:25:28;;;;;;;19.17;11.60;;;10.10;99.90;;;;;;5135501;27;20368;-62
2022/04/23 01:27:54;;;;;;;21.70;12.50;;;9.90;99.90;;;;;;5116657;27;20491;-62
2022/04/23 01:30:20;;;;;;;;;;;9.90;99.90;;;;;;5117119;27;20043;-62
2022/04/23 01:32:45;;;;;;;19.20;12.38;;;9.70;99.90;;;;;;5134690;27;19919;-62
2022/04/23 01:35:11;;;;;;;18.65;11.80;;;10.40;99.90;;;;;;5134617;27;20044;-62
2022/04/23 01:37:37;;;;;;;17.27;12.80;;;9.70;99.90;;;;;;5134600;27;20146;-62
2022/04/23 01:40:03;;;;;;;22.75;12.07;;;10.00;99.90;;;;;;5134826;27;20042;-61
2022/04/23 01:42:28;;;;;;;23.20;12.75;;;9.60;99.90;;;;;;5112964;28;20055;-62
2022/04/23 01:44:54;;;;;;;19.90;12.30;;;10.70;99.90;;;;;;5114271;28;20048;-62
2022/04/23 01:47:20;;;;;;;19.52;13.43;;;9.80;99.90;;;;;;5112987;28;20127;-62
2022/04/23 01:49:46;;;;;;;21.80;12.43;;;9.80;99.90;;;;;;5113873;28;20071;-61
2022/04/23 01:52:12;;;;;;;20.42;11.75;;;10.40;99.90;;;;;;5114124;28;20047;-62
2022/04/23 01:54:38;;;;;;;19.17;12.55;;;9.50;99.90;;;;;;5114040;28;20058;-62
2022/04/23 01:57:04;;;;;;;;;;;9.50;99.90;;;;;;5114416;28;20098;-62
2022/04/23 01:59:30;;;;;;;18.63;12.65;;;9.50;99.90;;;;;;5113899;28;19967;-61
2022/04/23 02:01:59;;;;;;;20.70;13.45;;;9.20;99.90;;;;;;5114019;28;20086;-62
2022/04/23 02:04:25;;;;;;;18.98;14.00;;;9.00;99.90;;;;;;5113944;28;20078;-63
2022/04/23 02:06:51;;;;;;;;;;;9.30;99.90;;;;;;5114270;28;20066;-62
2022/04/23 02:09:17;;;;;;;18.55;13.00;;;9.00;99.90;;;;;;5113787;28;20368;-61
2022/04/23 02:11:43;;;;;;;19.20;12.90;;;9.30;99.90;;;;;;5113728;28;20044;-62
2022/04/23 02:14:09;;;;;;;23.83;14.10;;;9.20;99.90;;;;;;5113803;28;20439;-62
2022/04/23 02:16:35;;;;;;;19.95;13.90;;;9.30;99.90;;;;;;5113432;28;20185;-62
2022/04/23 02:19:03;;;;;;;22.73;14.20;;;9.10;99.90;;;;;;5113713;28;20262;-62
2022/04/23 02:21:30;;;;;;;19.95;14.07;;;9.50;99.90;;;;;;5113522;28;20047;-64
2022/04/23 02:23:56;;;;;;;20.13;14.02;;;9.10;99.90;;;;;;5113560;28;20048;-62
2022/04/23 02:26:22;;;;;;;19.38;14.20;;;9.10;99.90;;;;;;5113571;28;20054;-62
2022/04/23 02:28:49;;;;;;;20.70;13.13;;;9.00;99.90;;;;;;5113524;28;20441;-61
2022/04/23 02:31:15;;;;;;;22.23;13.93;;;9.10;99.90;;;;;;5113424;28;20087;-62
2022/04/23 02:33:40;;;;;;;20.05;13.73;;;9.10;99.90;;;;;;5113458;28;20085;-63
2022/04/23 02:36:07;;;;;;;25.48;14.93;;;9.30;99.90;;;;;;5113150;28;20432;-62
2022/04/23 02:38:39;;;;;;;23.10;13.98;;;9.10;99.90;;;;;;5113371;28;20048;-61
2022/04/23 02:41:06;;;;;;;24.60;13.85;;;9.10;99.90;;;;;;5115595;27;20047;-62
2022/04/23 02:43:35;;;;;;;19.67;14.02;;;9.00;99.90;;;;;;5133906;27;20043;-63
2022/04/23 02:46:07;;;;;;;18.60;13.48;;;9.20;99.90;;;;;;5133789;27;20095;-62
2022/04/23 02:48:33;;;;;;;21.35;14.15;;;9.10;99.90;;;;;;5133368;27;20039;-62
2022/04/23 02:51:00;;;;;;;21.15;13.77;;;9.10;99.90;;;;;;5133707;27;20039;-61
2022/04/23 02:53:26;;;;;;;20.13;13.73;;;9.10;99.90;;;;;;5133731;28;20039;-63
2022/04/23 02:55:54;;;;;;;19.98;13.43;;;9.10;99.90;;;;;;5133687;28;20130;-62
2022/04/23 02:58:20;;;;;;;20.95;12.77;;;9.00;99.90;;;;;;5133636;28;20043;-62
2022/04/23 03:00:46;;;;;;;18.88;13.48;;;9.00;99.90;;;;;;5133591;28;20428;-62
2022/04/23 03:03:12;;;;;;;18.67;12.88;;;9.00;99.90;;;;;;5133306;28;20047;-61
2022/04/23 03:05:42;;;;;;;21.05;13.55;;;9.10;99.90;;;;;;5133572;28;20070;-62
2022/04/23 03:08:09;;;;;;;20.67;13.13;;;9.10;99.90;;;;;;5133507;28;20093;-62
2022/04/23 03:10:35;;;;;;;17.60;12.82;;;9.00;99.90;;;;;;5133536;28;20118;-64
2022/04/23 03:13:00;;;;;;;19.42;13.15;;;8.80;99.90;;;;;;5133593;28;20476;-63
2022/04/23 03:15:27;;;;;;;18.58;12.63;;;9.10;99.90;;;;;;5133508;28;20399;-62
2022/04/23 03:18:05;;;;;;;;;;;10.80;99.90;;;;;;5133915;28;20601;-62
2022/04/23 03:20:32;;;;;;;19.65;12.80;;;9.30;99.90;;;;;;5133410;28;19919;-62
2022/04/23 03:22:58;;;;;;;24.88;13.55;;;9.20;99.90;;;;;;5133442;28;20047;-63
2022/04/23 03:25:23;;;;;;;21.63;14.05;;;9.10;99.90;;;;;;5133401;28;20135;-62
2022/04/23 03:27:49;;;;;;;17.27;12.88;;;9.40;99.90;;;;;;5133361;28;20083;-61
2022/04/23 03:30:15;;;;;;;18.13;12.88;;;9.30;99.90;;;;;;5133447;28;20432;-62
2022/04/23 03:32:42;;;;;;;19.35;13.00;;;9.00;99.90;;;;;;5115045;28;20530;-64
2022/04/23 03:35:08;;;;;;;16.70;12.90;;;9.40;99.90;;;;;;5133298;28;20047;-62
2022/04/23 03:37:34;;;;;;;24.27;13.60;;;8.90;99.90;;;;;;5133319;28;20479;-62
2022/04/23 03:40:03;;;;;;;17.02;12.85;;;9.10;99.90;;;;;;5133218;28;20047;-62
2022/04/23 03:42:29;;;;;;;18.13;13.07;;;9.10;99.90;;;;;;5133275;28;20134;-62
2022/04/23 03:44:55;;;;;;;18.75;12.98;;;9.00;99.90;;;;;;5133172;28;20138;-63
2022/04/23 03:47:20;;;;;;;19.17;13.35;;;8.90;99.90;;;;;;5133231;28;20047;-64
2022/04/23 03:49:46;;;;;;;18.30;13.02;;;9.20;99.90;;;;;;5114877;28;20039;-63
2022/04/23 03:52:12;;;;;;;18.92;14.18;;;8.90;99.90;;;;;;5114971;28;20129;-63
2022/04/23 03:54:38;;;;;;;16.77;13.40;;;9.30;99.90;;;;;;5133173;28;20130;-63
2022/04/23 03:57:04;;;;;;;20.08;13.18;;;9.00;99.90;;;;;;5133147;28;20365;-62
2022/04/23 03:59:30;;;;;;;17.50;13.48;;;8.90;99.90;;;;;;5134337;27;20107;-63
2022/04/23 04:01:56;;;;;;;19.88;13.27;;;8.90;99.90;;;;;;5136853;27;20051;-63
2022/04/23 04:04:22;;;;;;;17.95;13.45;;;8.80;99.90;;;;;;5136785;27;20428;-62
2022/04/23 04:06:48;;;;;;;22.52;13.43;;;9.10;99.90;;;;;;5136761;27;20062;-62
2022/04/23 04:09:13;;;;;;;17.52;13.15;;;8.90;99.90;;;;;;5101353;27;20043;-62
2022/04/23 04:14:23;;;;;;;20.33;13.85;;;8.80;99.90;;;;;;5121112;27;20043;-61
2022/04/23 04:16:50;;;;;;;17.77;13.30;;;8.70;99.90;;;;;;5136565;27;20058;-62
2022/04/23 04:19:16;;;;;;;25.13;14.73;;;8.80;99.90;;;;;;5136532;27;20104;-63
2022/04/23 04:21:43;;;;;;;17.92;13.75;;;8.40;99.90;;;;;;5117978;27;20051;-62
2022/04/23 04:24:12;;;;;;;20.10;13.50;;;8.50;99.90;;;;;;5136389;27;20039;-61
2022/04/23 04:26:40;;;;;;;18.52;13.70;;;8.50;99.90;;;;;;5136375;27;20407;-62
2022/04/23 04:29:06;;;;;;;18.52;13.90;;;8.60;99.90;;;;;;5136332;27;20078;-62
2022/04/23 04:31:47;;;;;;;22.67;14.57;;;8.70;99.90;;;;;;5136345;27;20051;-62
2022/04/23 04:34:14;;;;;;;24.25;15.00;;;8.40;99.90;;;;;;5135997;27;20474;-63
2022/04/23 04:36:39;;;;;;;20.52;14.68;;;8.20;99.90;;;;;;5136191;27;20126;-62
2022/04/23 04:39:05;;;;;;;18.40;14.02;;;8.40;99.90;;;;;;5136114;27;20093;-62
2022/04/23 04:41:32;;;;;;;19.13;14.23;;;8.30;99.90;;;;;;5135899;27;20095;-64
2022/04/23 04:43:58;;;;;;;18.73;13.82;;;8.40;99.90;;;;;;5136125;27;20078;-63
2022/04/23 04:46:24;;;;;;;18.75;14.35;;;;;;;;;;5136008;27;20398;-63
2022/04/23 04:48:52;;;;;;;19.55;13.68;;;8.40;99.90;;;;;;5136008;27;20470;-63
2022/04/23 04:51:17;;;;;;;19.50;14.32;;;8.40;99.90;;;;;;5135889;27;20089;-62
2022/04/23 04:53:43;;;;;;;16.75;13.77;;;8.30;99.90;;;;;;5135874;27;20080;-63
2022/04/23 04:56:09;;;;;;;21.13;13.45;;;8.50;99.90;;;;;;5117653;27;20046;-62
2022/04/23 04:58:36;;;;;;;;;;;;;;;;;;5117483;27;20125;-62
2022/04/23 05:01:02;;;;;;;18.30;14.07;;;8.50;99.90;;;;;;5135594;27;19939;-64
2022/04/23 05:03:28;;;;;;;18.83;14.52;;;8.50;99.90;;;;;;5100434;27;20051;-62
2022/04/23 05:05:54;;;;;;;20.20;13.85;;;8.40;99.90;;;;;;5135677;27;20050;-62
2022/04/23 05:08:19;;;;;;;19.08;14.10;;;8.50;99.90;;;;;;5117288;27;20414;-62
2022/04/23 05:10:46;;;;;;;19.33;13.88;;;8.70;99.90;;;;;;5134915;27;20123;-62
2022/04/23 05:13:11;;;;;;;;;;;8.60;99.90;;;;;;5117728;27;20107;-63
2022/04/23 05:15:37;;;;;;;17.95;13.55;;;8.80;99.90;;;;;;5135371;27;19927;-63
2022/04/23 05:18:03;;;;;;;16.40;12.60;;;8.80;99.90;;;;;;5135383;27;20039;-65
2022/04/23 05:20:29;;;;;;;17.77;13.68;;;8.80;99.90;;;;;;5116890;27;20130;-63
2022/04/23 05:22:55;;;;;;;21.98;13.18;;;8.60;99.90;;;;;;5135288;27;20142;-63
2022/04/23 05:25:20;;;;;;;16.75;13.23;;;8.70;99.90;;;;;;5135230;27;20043;-63
2022/04/23 05:27:46;;;;;;;16.02;13.20;;;9.20;99.90;;;;;;5135524;27;20054;-64
2022/04/23 05:30:12;;;;;;;17.83;12.70;;;8.80;99.90;;;;;;5135387;27;20036;-63
2022/04/23 05:32:37;;;;;;;18.70;13.88;;;9.00;99.90;;;;;;5116574;27;20047;-63
2022/04/23 05:35:04;;;;;;;21.45;13.00;;;9.20;99.90;;;;;;5135032;27;20050;-64
2022/04/23 05:37:30;;;;;;;15.60;12.60;;;9.20;99.90;;;;;;5134960;27;20099;-63
2022/04/23 05:39:55;;;;;;;16.58;12.65;;;9.20;99.90;;;;;;5134837;27;20039;-61
2022/04/23 05:42:21;;;;;;;16.23;11.93;;;9.20;99.90;;;;;;5134806;27;20091;-64
2022/04/23 05:44:47;;;;;;;16.42;12.57;;;9.30;99.90;;;;;;5134868;27;20103;-62
2022/04/23 05:47:13;;;;;;;17.77;12.65;;;9.40;99.90;;;;;;5134763;27;20039;-63
2022/04/23 05:49:38;;;;;;;14.38;11.80;;;9.40;99.90;;;;;;5134660;27;20039;-64
2022/04/23 05:52:05;;;;;;;17.23;11.50;;;9.70;99.90;;;;;;5116600;27;20043;-62
2022/04/23 05:54:31;;;;;;;16.73;11.73;;;;;;;;;;5116495;27;20039;-64
2022/04/23 05:56:56;;;;;;;18.08;12.32;;;9.30;99.90;;;;;;5116528;27;20047;-65
2022/04/23 05:59:25;;;;;;;16.88;12.32;;;9.60;99.90;;;;;;5134948;27;20065;-64
2022/04/23 06:01:51;;;;;;;14.95;12.40;;;9.50;99.90;;;;;;5134467;27;20066;-64
2022/04/23 06:04:16;;;;;;;14.60;11.52;;;9.80;99.90;;;;;;5134813;27;20043;-64
2022/04/23 06:06:42;;;;;;;16.02;12.15;;;9.70;99.90;;;;;;5099222;27;20059;-64
2022/04/23 06:09:08;;;;;;;16.60;12.43;;;9.90;99.90;;;;;;5134374;27;20043;-64
2022/04/23 06:11:33;;;;;;;18.77;12.27;;;10.40;99.90;;;;;;5134431;27;20036;-64
2022/04/23 06:13:59;;;;;;;22.90;12.00;;;9.80;99.90;;;;;;5116194;27;20136;-63
2022/04/23 06:16:25;;;;;;;15.85;11.80;;;10.00;99.90;;;;;;5134272;27;20092;-64
2022/04/23 06:18:50;;;;;;;13.10;11.10;;;10.00;99.90;;;;;;5133926;27;20043;-63
2022/04/23 06:21:17;;;;;;;16.25;12.18;;;10.00;99.90;;;;;;5133890;27;20035;-63
2022/04/23 06:23:43;;;;;;;15.70;11.88;;;9.90;99.90;;;;;;5133691;27;20047;-63
2022/04/23 06:26:09;;;;;;;18.58;12.68;;;10.30;99.90;;;;;;5133765;27;20074;-64
2022/04/23 06:28:34;;;;;;;16.23;12.35;;;10.30;99.90;;;;;;5134056;27;20047;-63
2022/04/23 06:31:00;;;;;;;15.63;11.52;;;10.40;99.90;;;;;;5134034;27;20165;-63
2022/04/23 06:33:26;;;;;;;16.60;11.95;;;10.70;99.90;;;;;;5134020;27;20051;-64
2022/04/23 06:35:51;;;;;;;15.60;11.98;;;10.60;99.90;;;;;;5115886;27;20083;-64
2022/04/23 06:38:17;;;;;;;14.70;12.20;;;10.40;99.90;;;;;;5133686;27;20051;-65
2022/04/23 06:40:43;;;;;;;16.02;12.07;;;11.30;99.90;;;;;;5133835;27;20035;-64
2022/04/23 06:43:08;;;;;;;14.70;12.60;;;10.10;99.90;;;;;;5098129;27;20055;-63
2022/04/23 06:45:34;;;;;;;16.00;12.35;;;10.70;99.90;;;;;;5133888;27;20080;-64
2022/04/23 06:48:04;;;;;;;16.65;12.27;;;10.70;99.90;;;;;;5133501;27;20050;-63
2022/04/23 06:50:31;;;;;;;13.27;11.65;;;11.90;99.90;;;;;;5133805;27;20108;-63
2022/04/23 06:53:01;;;;;;;13.88;11.80;;;10.90;99.90;;;;;;5134066;27;20058;-64
2022/04/23 06:55:28;;;;;;;15.68;12.30;;;10.90;99.90;;;;;;5133740;28;20150;-63
2022/04/23 06:57:53;;;;;;;;;;;11.10;99.90;;;;;;5134138;28;20043;-63
2022/04/23 07:00:21;;;;;;;17.55;13.60;;;11.10;99.90;;;;;;5115233;28;19927;-64
2022/04/23 07:02:50;;;;;;;14.85;12.73;;;10.90;99.90;;;;;;5098250;28;20047;-66
2022/04/23 07:05:16;;;;;;;19.67;12.63;;;11.00;99.90;;;;;;5133663;28;20045;-63
2022/04/23 07:07:55;;;;;;;15.25;11.80;;;11.20;99.90;;;;;;5115544;28;20593;-65
2022/04/23 07:10:21;;;;;;;18.15;13.15;;;11.50;99.90;;;;;;5133678;28;20043;-64
2022/04/23 07:12:46;;;;;;;15.02;11.75;;;11.50;99.90;;;;;;5133563;28;20047;-63
2022/04/23 07:15:13;;;;;;;15.05;12.55;;;11.50;99.90;;;;;;5115428;28;20511;-63
2022/04/23 07:17:38;;;;;;;16.35;12.90;;;11.70;99.90;;;;;;5133466;28;20055;-65
2022/04/23 07:20:04;;;;;;;17.15;12.90;;;12.00;99.90;;;;;;5133443;28;20046;-64
2022/04/23 07:22:30;;;;;;;15.75;12.93;;;11.80;99.90;;;;;;5133579;28;20103;-64
2022/04/23 07:24:56;;;;;;;16.33;12.18;;;12.00;99.90;;;;;;5133469;28;20127;-64
2022/04/23 07:27:21;;;;;;;14.23;12.07;;;11.90;99.90;;;;;;5115362;28;20147;-64
2022/04/23 07:29:47;;;;;;;15.88;12.32;;;12.10;99.90;;;;;;5133412;28;20171;-64
2022/04/23 07:32:13;;;;;;;15.52;12.60;;;11.70;99.90;;;;;;5114980;28;20055;-65
2022/04/23 07:37:28;;;;;;;16.42;11.85;;;12.00;99.90;;;;;;5137405;27;20055;-66
2022/04/23 07:39:59;;;;;;;17.35;12.63;;;12.30;99.90;;;;;;5119902;27;20135;-64
2022/04/23 07:42:26;;;;;;;15.98;12.30;;;12.00;99.90;;;;;;5136839;27;20507;-64
2022/04/23 07:44:51;;;;;;;22.98;13.45;;;12.30;99.90;;;;;;5118896;27;20348;-64
2022/04/23 07:47:18;;;;;;;16.73;12.45;;;12.80;99.90;;;;;;5118859;27;20096;-64
2022/04/23 07:49:44;;;;;;;16.60;11.93;;;12.30;99.90;;;;;;5137150;27;20039;-65
2022/04/23 07:52:10;;;;;;;14.88;12.77;;;12.20;99.90;;;;;;5118926;27;20043;-63
2022/04/23 07:54:38;;;;;;;18.38;12.07;;;12.60;99.90;;;;;;5101956;27;20043;-64
2022/04/23 07:57:08;;;;;;;19.75;12.90;;;12.90;99.90;;;;;;5137104;27;20398;-65
2022/04/23 07:59:37;;;;;;;14.02;12.05;;;12.30;99.90;;;;;;5136971;27;20050;-64
2022/04/23 08:02:03;;;;;;;16.33;11.75;;;12.80;99.90;;;;;;5136809;27;20119;-65
2022/04/23 08:04:29;;;;;;;15.68;11.48;;;12.60;99.90;;;;;;5136846;27;20483;-64
2022/04/23 08:06:54;;;;;;;14.25;11.55;;;13.00;99.90;;;;;;5118478;27;20094;-63
2022/04/23 08:09:20;;;;;;;14.73;12.20;;;12.80;99.90;;;;;;5136765;27;20039;-64
2022/04/23 08:11:46;;;;;;;15.70;11.98;;;13.00;99.90;;;;;;5136716;27;20111;-64
2022/04/23 08:14:11;;;;;;;16.05;12.13;;;12.90;99.90;;;;;;5136685;27;20489;-64
2022/04/23 08:16:37;;;;;;;15.88;12.48;;;13.10;99.90;;;;;;5118290;27;20440;-64
2022/04/23 08:19:03;;;;;;;13.82;11.57;;;13.40;99.90;;;;;;5101461;27;20047;-63
2022/04/23 08:21:29;;;;;;;14.57;12.35;;;13.70;99.90;;;;;;5117946;27;20058;-64
2022/04/23 08:23:54;;;;;;;15.18;12.05;;;13.70;99.90;;;;;;5136534;27;20391;-64
2022/04/23 08:26:20;;;;;;;17.48;12.75;;;14.70;99.90;;;;;;5136464;27;20147;-64
2022/04/23 08:31:30;;;;;;;21.92;11.95;;;13.70;99.90;;;;;;5136459;27;20125;-65
2022/04/23 08:33:58;;;;;;;16.98;11.70;;;13.60;99.90;;;;;;5117963;27;20122;-63
2022/04/23 08:36:29;;;;;;;15.88;11.75;;;13.40;99.90;;;;;;5136266;27;20112;-64
2022/04/23 08:38:56;;;;;;;15.65;11.95;;;13.40;99.90;;;;;;5118676;27;20043;-64
2022/04/23 08:41:29;;;;;;;13.25;11.73;;;13.70;99.90;;;;;;5135789;27;20138;-64
2022/04/23 08:43:56;;;;;;;12.93;11.45;;;13.70;99.90;;;;;;5117767;27;20486;-64
2022/04/23 08:46:24;;;;;;;13.15;11.48;;;14.20;99.90;;;;;;5117166;27;20443;-64
2022/04/23 08:48:58;;;;;;;13.52;11.18;;;14.10;99.90;;;;;;5136018;27;20043;-63
2022/04/23 08:51:25;;;;;;;15.18;10.55;;;14.00;99.90;;;;;;5136308;27;20190;-65
2022/04/23 08:53:56;;;;;;;14.98;11.00;;;14.10;99.90;;;;;;5135879;27;20043;-64
2022/04/23 08:56:21;;;;;;;15.82;11.40;;;14.60;99.90;;;;;;5135954;27;20078;-64
2022/04/23 08:58:47;;;;;;;16.77;10.95;;;14.20;99.90;;;;;;5135871;27;20083;-64
2022/04/23 09:01:13;;;;;;;12.32;10.80;;;14.40;99.90;;;;;;5135769;27;20399;-63
2022/04/23 09:03:39;;;;;;;11.77;10.52;;;16.90;99.90;;;;;;5100605;27;20054;-66
2022/04/23 09:06:05;;;;;;;12.20;10.90;;;14.50;99.90;;;;;;5135680;27;20047;-64
2022/04/23 09:08:31;;;;;;;11.40;10.20;;;14.10;99.90;;;;;;5135556;27;20047;-64
2022/04/23 09:10:56;;;;;;;13.15;10.18;;;16.20;99.90;;;;;;5135554;27;20061;-63
2022/04/23 09:13:26;;;;;;;12.90;10.10;;;14.90;99.90;;;;;;5117255;27;20040;-64
2022/04/23 09:24:47;;;;;;;12.82;9.70;;;14.60;99.90;;;;;;5135266;27;20051;-63
2022/04/23 09:27:14;;;;;;;13.88;9.68;;;14.50;99.90;;;;;;5135251;27;20065;-63
2022/04/23 09:29:42;;;;;;;13.20;10.77;;;15.30;99.90;;;;;;5116846;27;20047;-64
2022/04/23 09:32:14;;;;;;;16.65;10.23;;;14.70;99.90;;;;;;5135205;27;20090;-64
2022/04/23 09:34:40;;;;;;;19.55;10.27;;;14.80;99.90;;;;;;5135151;27;20131;-65
2022/04/23 09:37:08;;;;;;;;;;;14.70;99.90;;;;;;5117045;27;20042;-65
2022/04/23 09:39:35;;;;;;;14.57;10.70;;;15.20;99.90;;;;;;5116884;27;20292;-64
2022/04/23 09:42:18;;;;;;;11.15;9.95;;;15.00;99.90;;;;;;5116487;27;20116;-65
2022/04/23 09:44:45;;;;;;;14.07;10.30;;;15.40;99.90;;;;;;5134902;27;20479;-65
2022/04/23 09:47:27;;;;;;;10.43;9.25;;;15.20;99.90;;;;;;5134821;27;20114;-65
2022/04/23 09:49:56;;;;;;;13.00;9.38;;;15.00;99.90;;;;;;5134586;27;20053;-64
2022/04/23 09:52:29;;;;;;;13.63;10.25;;;15.10;99.90;;;;;;5134795;27;20043;-64
2022/04/23 09:55:02;;;;;;;13.60;10.23;;;15.50;99.90;;;;;;5099513;27;20062;-65
2022/04/23 09:57:27;;;;;;;12.02;9.25;;;15.40;99.90;;;;;;5115670;27;20051;-65
2022/04/23 09:59:54;;;;;;;14.25;9.88;;;15.60;99.90;;;;;;5134505;27;20367;-64
2022/04/23 10:02:22;;;;;;;12.90;10.90;;;15.70;99.90;;;;;;5134292;27;20406;-65
2022/04/23 10:04:51;;;;;;;13.40;10.75;;;15.50;99.90;;;;;;5134411;27;20050;-64
2022/04/23 10:07:17;;;;;;;14.27;10.48;;;15.50;99.90;;;;;;5116032;27;20051;-64
2022/04/23 10:09:46;;;;;;;12.90;10.60;;;15.90;99.90;;;;;;5134471;27;20070;-65
2022/04/23 10:12:17;;;;;;;12.25;10.52;;;15.80;99.90;;;;;;5134427;27;20138;-64
2022/04/23 10:14:48;;;;;;;14.55;9.82;;;15.50;99.90;;;;;;5116255;27;20462;-64
2022/04/23 10:17:18;;;;;;;12.55;10.15;;;15.70;99.90;;;;;;5134698;27;20074;-64
2022/04/23 10:19:44;;;;;;;11.73;10.38;;;15.70;99.90;;;;;;5134339;27;20051;-65
2022/04/23 10:22:21;;;;;;;11.77;9.32;;;15.90;99.90;;;;;;5134241;27;20065;-65
2022/04/23 10:24:59;;;;;;;16.40;11.27;;;15.80;99.90;;;;;;5134304;27;20187;-64
2022/04/23 10:27:25;;;;;;;12.18;9.10;;;15.80;99.90;;;;;;5115979;27;20090;-65
2022/04/23 10:30:02;;;;;;;13.38;8.45;;;16.30;99.90;;;;;;5134065;27;20053;-65
2022/04/23 10:32:41;;;;;;;10.68;8.07;;;17.10;99.90;;;;;;5134227;27;20055;-64
2022/04/23 10:35:18;;;;;;;13.43;7.82;;;16.20;99.90;;;;;;5098660;27;20504;-64
2022/04/23 10:37:51;;;;;;;13.20;8.65;;;16.30;99.90;;;;;;5133968;27;20047;-64
2022/04/23 10:40:20;;;;;;;12.48;8.05;;;16.30;99.90;;;;;;5133963;27;20038;-66
2022/04/23 10:43:08;;;;;;;10.68;8.85;;;15.90;99.90;;;;;;5133928;27;20054;-65
2022/04/23 10:45:39;;;;;;;11.13;8.25;;;16.00;99.90;;;;;;5133855;27;20043;-64
2022/04/23 10:48:33;;;;;;;8.95;7.53;;;16.00;99.90;;;;;;5115520;27;20043;-64
2022/04/23 10:51:15;;;;;;;8.45;7.10;;;16.10;99.90;;;;;;5130997;27;20055;-65
2022/04/23 10:53:46;;;;;;;12.35;7.50;;;16.20;99.30;;;;;;5133854;27;20506;-65
2022/04/23 10:56:17;;;;;;;9.05;7.30;;;16.10;96.50;;;;;;5134116;28;20387;-66
2022/04/23 10:58:43;;;;;;;17.45;7.25;;;16.50;95.30;;;;;;5133448;28;20584;-65
2022/04/23 11:01:29;;;;;;;;;;;16.60;96.50;;;;;;5134003;28;20039;-64
2022/04/23 11:03:55;;;;;;;8.82;7.05;;;16.20;95.30;;;;;;5133971;28;19927;-65
2022/04/23 11:12:22;;;;;;;11.77;8.18;;;16.50;94.20;;;;;;5137914;27;20142;-64
2022/04/23 11:14:51;;;;;;;14.30;8.15;;;16.60;96.70;;;;;;5137848;27;20115;-64
2022/04/23 11:17:49;;;;;;;11.02;8.10;;;16.70;96.60;;;;;;5137806;27;20039;-65
2022/04/23 11:20:29;;;;;;;10.27;7.70;;;17.00;96.40;;;;;;5131381;27;20054;-65
2022/04/23 11:22:57;;;;;;;12.43;6.80;;;17.20;95.10;;;;;;5119392;27;20047;-66
2022/04/23 11:25:23;;;;;;;8.10;7.18;;;16.90;94.80;;;;;;5137691;27;20050;-65
2022/04/23 11:27:50;;;;;;;9.60;7.07;;;17.20;93.90;;;;;;5137590;27;20043;-65
2022/04/23 11:30:30;;;;;;;10.38;7.93;;;16.70;93.30;;;;;;5119183;27;20055;-66
2022/04/23 11:33:09;;;;;;;8.63;7.22;;;17.10;92.90;;;;;;5137521;27;20081;-63
2022/04/23 11:35:36;;;;;;;13.80;8.63;;;16.80;94.30;;;;;;5137537;27;20099;-64
2022/04/23 11:38:02;;;;;;;9.05;6.78;;;17.00;95.80;;;;;;5101933;27;20066;-64
2022/04/23 11:40:28;;;;;;;10.23;7.38;;;17.30;94.90;;;;;;5118978;27;20047;-66
2022/04/23 11:42:55;;;;;;;10.98;6.47;;;17.30;93.90;;;;;;5136886;27;20066;-65
2022/04/23 11:45:22;;;;;;;12.15;6.50;;;17.30;93.30;;;;;;5137297;27;20055;-65
2022/04/23 11:47:48;;;;;;;11.05;7.25;;;17.80;93.80;;;;;;5118773;27;20402;-64
2022/04/23 11:50:15;;;;;;;;;;;17.80;92.10;;;;;;5119504;27;20039;-65
2022/04/23 11:52:45;;;;;;;9.90;8.10;;;17.70;92.30;;;;;;5137158;27;19923;-64
2022/04/23 11:55:22;;;;;;;8.20;6.43;;;17.30;92.50;;;;;;5137025;27;20490;-67
2022/04/23 11:58:00;;;;;;;7.10;6.40;;;17.00;91.10;;;;;;5136829;27;20546;-64
2022/04/23 12:00:27;;;;;;;9.20;6.50;;;17.20;90.60;;;;;;5118487;27;20051;-66
2022/04/23 12:02:54;;;;;;;13.30;7.78;;;17.50;92.30;;;;;;5136650;27;20564;-65
2022/04/23 12:05:28;;;;;;;7.40;6.60;;;17.50;92.10;;;;;;5136855;27;20497;-65
2022/04/23 12:07:54;;;;;;;8.32;6.95;;;17.40;91.60;;;;;;5136896;27;20467;-64
2022/04/23 12:10:27;;;;;;;;;;;17.70;91.80;;;;;;5137265;27;20031;-64
2022/04/23 12:12:54;;;;;;;8.73;6.03;;;17.70;90.00;;;;;;5153123;27;19984;-65
2022/04/23 12:15:20;;;;;;;8.52;5.70;;;17.80;88.50;;;;;;5136531;27;20053;-66
2022/04/23 12:17:46;;;;;;;;;;;17.90;90.50;;;;;;5137062;27;20127;-65
2022/04/23 12:20:14;;;;;;;7.38;5.07;;;18.00;90.20;;;;;;5135417;27;19919;-65
2022/04/23 12:22:41;;;;;;;7.18;4.90;;;18.10;88.80;;;;;;5136515;27;20043;-64
2022/04/23 12:25:16;;;;;;;7.72;5.85;;;17.80;87.80;;;;;;5136516;27;20051;-66
2022/04/23 12:40:43;;;;;;;7.50;4.63;;;18.30;87.30;;;;;;5118453;27;20055;-65
2022/04/23 12:42:11;;;;;;;6.43;4.78;;;18.20;79.50;;;;;;5135908;27;20457;-65
2022/04/23 12:44:42;;;;;;;8.20;5.03;;;18.30;80.90;;;;;;5118081;27;20122;-64
2022/04/23 12:47:09;;;;;;;7.72;4.55;;;18.30;81.40;;;;;;5117776;27;20099;-65
2022/04/23 12:49:48;;;;;;;9.25;5.43;;;18.20;80.80;;;;;;5136073;27;20049;-65
2022/04/23 12:52:16;;;;;;;8.77;4.68;;;18.10;79.60;;;;;;5136012;27;20057;-64
2022/04/23 12:55:13;;;;;;;5.53;4.28;;;18.50;79.80;;;;;;5135971;27;20047;-66
2022/04/23 12:57:44;;;;;;;6.95;5.07;;;18.20;77.60;;;;;;5135894;27;20043;-64
2022/04/23 13:00:13;;;;;;;6.30;4.53;;;18.40;78.80;;;;;;5135846;27;21922;-66
2022/04/23 13:02:40;;;;;;;7.15;4.43;;;18.40;80.80;;;;;;5135798;27;20045;-65
2022/04/23 13:05:08;;;;;;;5.55;4.25;;;18.60;78.60;;;;;;5135742;27;20051;-65
2022/04/23 13:10:18;;;;;;;7.82;4.40;;;18.50;79.60;;;;;;5135632;27;20054;-65
2022/04/23 13:12:44;;;;;;;6.53;4.10;;;18.50;78.50;;;;;;5135557;27;20376;-66
2022/04/23 13:15:11;;;;;;;5.05;4.30;;;18.60;79.00;;;;;;5135246;27;20051;-66
2022/04/23 13:17:38;;;;;;;5.25;3.95;;;18.80;78.70;;;;;;5117154;27;20090;-67
2022/04/23 13:20:07;;;;;;;5.68;3.92;;;18.70;78.60;;;;;;5135367;27;20092;-64